sensor_id;sensor_type;location;lat;lon;timestamp;P1;durP1;ratioP1;P2;durP2;ratioP2
61915;SDS011;47868;51.326;6.550;2023-04-12T00:00:48;6.60;;;2.22;;
61915;SDS011;47868;51.326;6.550;2023-04-12T00:03:16;7.07;;;2.42;;
61915;SDS011;47868;51.326;6.550;2023-04-12T00:05:44;4.72;;;2.20;;
61915;SDS011;47868;51.326;6.550;2023-04-12T00:08:12;4.72;;;2.33;;
61915;SDS011;47868;51.326;6.550;2023-04-12T00:10:38;5.70;;;2.15;;
61915;SDS011;47868;51.326;6.550;2023-04-12T00:13:04;5.00;;;2.17;;
61915;SDS011;47868;51.326;6.550;2023-04-12T00:15:31;5.43;;;2.10;;
61915;SDS011;47868;51.326;6.550;2023-04-12T00:17:57;5.55;;;2.25;;
61915;SDS011;47868;51.326;6.550;2023-04-12T00:20:23;8.30;;;2.75;;
61915;SDS011;47868;51.326;6.550;2023-04-12T00:22:51;10.27;;;2.85;;
61915;SDS011;47868;51.326;6.550;2023-04-12T00:25:17;3.95;;;2.08;;
61915;SDS011;47868;51.326;6.550;2023-04-12T00:27:43;7.03;;;2.65;;
61915;SDS011;47868;51.326;6.550;2023-04-12T00:30:10;7.65;;;2.65;;
61915;SDS011;47868;51.326;6.550;2023-04-12T00:32:36;8.40;;;2.47;;
61915;SDS011;47868;51.326;6.550;2023-04-12T00:35:02;7.53;;;2.80;;
61915;SDS011;47868;51.326;6.550;2023-04-12T00:37:28;8.80;;;2.75;;
61915;SDS011;47868;51.326;6.550;2023-04-12T00:39:54;6.55;;;2.50;;
61915;SDS011;47868;51.326;6.550;2023-04-12T00:42:20;8.73;;;2.67;;
61915;SDS011;47868;51.326;6.550;2023-04-12T00:44:46;7.72;;;2.60;;
61915;SDS011;47868;51.326;6.550;2023-04-12T00:47:12;4.70;;;2.35;;
61915;SDS011;47868;51.326;6.550;2023-04-12T00:49:38;7.07;;;2.50;;
61915;SDS011;47868;51.326;6.550;2023-04-12T00:52:08;6.25;;;2.63;;
61915;SDS011;47868;51.326;6.550;2023-04-12T00:54:35;6.57;;;2.30;;
61915;SDS011;47868;51.326;6.550;2023-04-12T00:57:01;7.60;;;2.65;;
61915;SDS011;47868;51.326;6.550;2023-04-12T00:59:27;11.90;;;2.75;;
61915;SDS011;47868;51.326;6.550;2023-04-12T01:01:54;9.40;;;3.05;;
61915;SDS011;47868;51.326;6.550;2023-04-12T01:04:20;10.88;;;2.78;;
61915;SDS011;47868;51.326;6.550;2023-04-12T01:14:34;9.52;;;3.25;;
61915;SDS011;47868;51.326;6.550;2023-04-12T01:17:04;8.80;;;3.38;;
61915;SDS011;47868;51.326;6.550;2023-04-12T01:27:21;11.00;;;3.60;;
61915;SDS011;47868;51.326;6.550;2023-04-12T01:29:52;7.10;;;2.95;;
61915;SDS011;47868;51.326;6.550;2023-04-12T01:32:20;9.93;;;3.30;;
61915;SDS011;47868;51.326;6.550;2023-04-12T01:34:46;9.40;;;3.10;;
61915;SDS011;47868;51.326;6.550;2023-04-12T01:37:12;6.97;;;3.10;;
61915;SDS011;47868;51.326;6.550;2023-04-12T01:39:40;7.60;;;3.20;;
61915;SDS011;47868;51.326;6.550;2023-04-12T01:42:06;6.60;;;2.85;;
61915;SDS011;47868;51.326;6.550;2023-04-12T01:44:32;6.55;;;2.67;;
61915;SDS011;47868;51.326;6.550;2023-04-12T01:46:58;7.80;;;2.83;;
61915;SDS011;47868;51.326;6.550;2023-04-12T01:49:25;7.70;;;2.90;;
61915;SDS011;47868;51.326;6.550;2023-04-12T01:51:57;7.80;;;3.08;;
61915;SDS011;47868;51.326;6.550;2023-04-12T01:54:26;7.57;;;2.90;;
61915;SDS011;47868;51.326;6.550;2023-04-12T01:56:55;8.02;;;3.00;;
61915;SDS011;47868;51.326;6.550;2023-04-12T01:59:22;5.10;;;2.30;;
61915;SDS011;47868;51.326;6.550;2023-04-12T02:01:48;6.68;;;2.55;;
61915;SDS011;47868;51.326;6.550;2023-04-12T02:04:16;6.85;;;2.42;;
61915;SDS011;47868;51.326;6.550;2023-04-12T02:06:42;5.22;;;2.75;;
61915;SDS011;47868;51.326;6.550;2023-04-12T02:09:08;7.88;;;3.03;;
61915;SDS011;47868;51.326;6.550;2023-04-12T02:11:34;4.43;;;2.25;;
61915;SDS011;47868;51.326;6.550;2023-04-12T02:14:01;5.63;;;2.45;;
61915;SDS011;47868;51.326;6.550;2023-04-12T02:16:27;6.38;;;2.92;;
61915;SDS011;47868;51.326;6.550;2023-04-12T02:18:53;6.72;;;2.45;;
61915;SDS011;47868;51.326;6.550;2023-04-12T02:21:23;10.77;;;2.70;;
61915;SDS011;47868;51.326;6.550;2023-04-12T02:23:49;5.00;;;2.83;;
61915;SDS011;47868;51.326;6.550;2023-04-12T02:26:15;4.68;;;2.30;;
61915;SDS011;47868;51.326;6.550;2023-04-12T02:28:43;6.43;;;2.80;;
61915;SDS011;47868;51.326;6.550;2023-04-12T02:31:10;5.00;;;2.38;;
61915;SDS011;47868;51.326;6.550;2023-04-12T02:33:37;9.90;;;2.80;;
61915;SDS011;47868;51.326;6.550;2023-04-12T02:36:07;6.72;;;2.70;;
61915;SDS011;47868;51.326;6.550;2023-04-12T02:38:34;6.43;;;2.67;;
61915;SDS011;47868;51.326;6.550;2023-04-12T02:41:00;7.20;;;2.80;;
61915;SDS011;47868;51.326;6.550;2023-04-12T02:43:26;4.78;;;2.17;;
61915;SDS011;47868;51.326;6.550;2023-04-12T02:45:52;6.43;;;2.50;;
61915;SDS011;47868;51.326;6.550;2023-04-12T02:48:18;5.55;;;2.35;;
61915;SDS011;47868;51.326;6.550;2023-04-12T02:50:44;5.43;;;2.28;;
61915;SDS011;47868;51.326;6.550;2023-04-12T02:53:10;7.78;;;2.72;;
61915;SDS011;47868;51.326;6.550;2023-04-12T02:55:36;6.07;;;2.17;;
61915;SDS011;47868;51.326;6.550;2023-04-12T02:58:04;5.47;;;2.30;;
61915;SDS011;47868;51.326;6.550;2023-04-12T03:00:30;5.53;;;2.13;;
61915;SDS011;47868;51.326;6.550;2023-04-12T03:02:57;5.30;;;1.85;;
61915;SDS011;47868;51.326;6.550;2023-04-12T03:05:23;5.43;;;2.40;;
61915;SDS011;47868;51.326;6.550;2023-04-12T03:07:49;3.53;;;2.45;;
61915;SDS011;47868;51.326;6.550;2023-04-12T03:10:15;6.32;;;2.22;;
61915;SDS011;47868;51.326;6.550;2023-04-12T03:12:42;4.07;;;2.05;;
61915;SDS011;47868;51.326;6.550;2023-04-12T03:15:08;6.85;;;2.45;;
61915;SDS011;47868;51.326;6.550;2023-04-12T03:17:34;4.57;;;1.75;;
61915;SDS011;47868;51.326;6.550;2023-04-12T03:20:04;5.55;;;1.60;;
61915;SDS011;47868;51.326;6.550;2023-04-12T03:22:32;5.32;;;1.90;;
61915;SDS011;47868;51.326;6.550;2023-04-12T03:24:58;5.50;;;1.67;;
61915;SDS011;47868;51.326;6.550;2023-04-12T03:27:24;2.95;;;1.85;;
61915;SDS011;47868;51.326;6.550;2023-04-12T03:29:50;3.97;;;1.95;;
61915;SDS011;47868;51.326;6.550;2023-04-12T03:32:16;3.28;;;1.90;;
61915;SDS011;47868;51.326;6.550;2023-04-12T03:34:42;4.53;;;2.13;;
61915;SDS011;47868;51.326;6.550;2023-04-12T03:37:09;4.10;;;2.10;;
61915;SDS011;47868;51.326;6.550;2023-04-12T03:39:35;3.28;;;2.10;;
61915;SDS011;47868;51.326;6.550;2023-04-12T03:42:02;3.88;;;1.88;;
61915;SDS011;47868;51.326;6.550;2023-04-12T03:44:28;5.10;;;2.05;;
61915;SDS011;47868;51.326;6.550;2023-04-12T03:46:54;3.15;;;1.90;;
61915;SDS011;47868;51.326;6.550;2023-04-12T03:49:20;5.82;;;2.25;;
61915;SDS011;47868;51.326;6.550;2023-04-12T03:51:46;4.30;;;1.90;;
61915;SDS011;47868;51.326;6.550;2023-04-12T03:54:14;3.50;;;1.50;;
61915;SDS011;47868;51.326;6.550;2023-04-12T03:56:40;3.55;;;1.90;;
61915;SDS011;47868;51.326;6.550;2023-04-12T03:59:06;3.38;;;1.75;;
61915;SDS011;47868;51.326;6.550;2023-04-12T04:01:33;4.32;;;1.90;;
61915;SDS011;47868;51.326;6.550;2023-04-12T04:03:59;4.03;;;1.50;;
61915;SDS011;47868;51.326;6.550;2023-04-12T04:06:25;2.40;;;1.85;;
61915;SDS011;47868;51.326;6.550;2023-04-12T04:08:53;3.90;;;1.70;;
61915;SDS011;47868;51.326;6.550;2023-04-12T04:11:19;3.85;;;1.80;;
61915;SDS011;47868;51.326;6.550;2023-04-12T04:13:45;2.22;;;1.75;;
61915;SDS011;47868;51.326;6.550;2023-04-12T04:16:12;4.30;;;2.40;;
61915;SDS011;47868;51.326;6.550;2023-04-12T04:18:38;3.80;;;1.98;;
61915;SDS011;47868;51.326;6.550;2023-04-12T04:21:04;4.07;;;1.77;;
61915;SDS011;47868;51.326;6.550;2023-04-12T04:23:32;3.75;;;1.90;;
61915;SDS011;47868;51.326;6.550;2023-04-12T04:26:02;3.30;;;1.85;;
61915;SDS011;47868;51.326;6.550;2023-04-12T04:28:29;3.10;;;1.90;;
61915;SDS011;47868;51.326;6.550;2023-04-12T04:30:55;4.50;;;1.92;;
61915;SDS011;47868;51.326;6.550;2023-04-12T04:33:21;3.90;;;2.28;;
61915;SDS011;47868;51.326;6.550;2023-04-12T04:35:48;5.60;;;2.33;;
61915;SDS011;47868;51.326;6.550;2023-04-12T04:38:15;4.32;;;2.30;;
61915;SDS011;47868;51.326;6.550;2023-04-12T04:40:41;3.42;;;2.13;;
61915;SDS011;47868;51.326;6.550;2023-04-12T04:43:07;3.75;;;2.10;;
61915;SDS011;47868;51.326;6.550;2023-04-12T04:45:33;3.08;;;1.80;;
61915;SDS011;47868;51.326;6.550;2023-04-12T04:48:00;3.33;;;1.90;;
61915;SDS011;47868;51.326;6.550;2023-04-12T04:50:27;3.28;;;2.20;;
61915;SDS011;47868;51.326;6.550;2023-04-12T04:52:53;4.15;;;2.22;;
61915;SDS011;47868;51.326;6.550;2023-04-12T04:55:19;7.07;;;2.38;;
61915;SDS011;47868;51.326;6.550;2023-04-12T04:57:45;4.45;;;2.40;;
61915;SDS011;47868;51.326;6.550;2023-04-12T05:00:12;3.58;;;2.42;;
61915;SDS011;47868;51.326;6.550;2023-04-12T05:02:38;5.85;;;2.50;;
61915;SDS011;47868;51.326;6.550;2023-04-12T05:05:07;6.80;;;2.60;;
61915;SDS011;47868;51.326;6.550;2023-04-12T05:07:33;6.20;;;2.15;;
61915;SDS011;47868;51.326;6.550;2023-04-12T05:10:01;5.88;;;2.58;;
61915;SDS011;47868;51.326;6.550;2023-04-12T05:12:27;6.55;;;2.55;;
61915;SDS011;47868;51.326;6.550;2023-04-12T05:14:53;5.57;;;2.50;;
61915;SDS011;47868;51.326;6.550;2023-04-12T05:17:20;6.25;;;2.70;;
61915;SDS011;47868;51.326;6.550;2023-04-12T05:19:46;6.20;;;2.80;;
61915;SDS011;47868;51.326;6.550;2023-04-12T05:22:12;4.20;;;2.58;;
61915;SDS011;47868;51.326;6.550;2023-04-12T05:24:44;4.55;;;2.65;;
61915;SDS011;47868;51.326;6.550;2023-04-12T05:27:10;7.18;;;2.80;;
61915;SDS011;47868;51.326;6.550;2023-04-12T05:29:36;5.47;;;2.83;;
61915;SDS011;47868;51.326;6.550;2023-04-12T05:32:02;6.28;;;3.30;;
61915;SDS011;47868;51.326;6.550;2023-04-12T05:34:28;5.53;;;2.90;;
61915;SDS011;47868;51.326;6.550;2023-04-12T05:36:54;5.97;;;2.65;;
61915;SDS011;47868;51.326;6.550;2023-04-12T05:39:21;5.80;;;3.20;;
61915;SDS011;47868;51.326;6.550;2023-04-12T05:41:47;5.05;;;3.20;;
61915;SDS011;47868;51.326;6.550;2023-04-12T05:44:13;4.53;;;3.03;;
61915;SDS011;47868;51.326;6.550;2023-04-12T05:46:39;5.28;;;3.00;;
61915;SDS011;47868;51.326;6.550;2023-04-12T05:49:05;6.07;;;3.10;;
61915;SDS011;47868;51.326;6.550;2023-04-12T05:51:31;4.38;;;3.15;;
61915;SDS011;47868;51.326;6.550;2023-04-12T05:53:58;6.10;;;3.50;;
61915;SDS011;47868;51.326;6.550;2023-04-12T05:56:25;4.55;;;2.60;;
61915;SDS011;47868;51.326;6.550;2023-04-12T05:58:51;4.32;;;3.00;;
61915;SDS011;47868;51.326;6.550;2023-04-12T06:01:17;4.68;;;2.85;;
61915;SDS011;47868;51.326;6.550;2023-04-12T06:03:45;8.43;;;3.47;;
61915;SDS011;47868;51.326;6.550;2023-04-12T06:06:16;5.93;;;3.25;;
61915;SDS011;47868;51.326;6.550;2023-04-12T06:08:42;4.78;;;2.95;;
61915;SDS011;47868;51.326;6.550;2023-04-12T06:11:09;7.75;;;3.92;;
61915;SDS011;47868;51.326;6.550;2023-04-12T06:16:03;5.57;;;3.35;;
61915;SDS011;47868;51.326;6.550;2023-04-12T06:18:29;6.78;;;3.55;;
61915;SDS011;47868;51.326;6.550;2023-04-12T06:20:56;6.18;;;3.53;;
61915;SDS011;47868;51.326;6.550;2023-04-12T06:23:22;5.07;;;3.30;;
61915;SDS011;47868;51.326;6.550;2023-04-12T06:25:48;5.45;;;3.20;;
61915;SDS011;47868;51.326;6.550;2023-04-12T06:28:14;6.72;;;3.05;;
61915;SDS011;47868;51.326;6.550;2023-04-12T06:30:40;4.32;;;2.85;;
61915;SDS011;47868;51.326;6.550;2023-04-12T06:33:06;3.65;;;2.97;;
61915;SDS011;47868;51.326;6.550;2023-04-12T06:35:32;8.52;;;3.38;;
61915;SDS011;47868;51.326;6.550;2023-04-12T06:37:59;4.32;;;3.35;;
61915;SDS011;47868;51.326;6.550;2023-04-12T06:40:25;6.00;;;3.17;;
61915;SDS011;47868;51.326;6.550;2023-04-12T06:42:51;3.80;;;2.90;;
61915;SDS011;47868;51.326;6.550;2023-04-12T06:45:17;6.55;;;3.20;;
61915;SDS011;47868;51.326;6.550;2023-04-12T06:47:43;5.45;;;3.20;;
61915;SDS011;47868;51.326;6.550;2023-04-12T06:50:09;5.88;;;3.35;;
61915;SDS011;47868;51.326;6.550;2023-04-12T06:52:35;4.35;;;2.97;;
61915;SDS011;47868;51.326;6.550;2023-04-12T06:55:01;3.72;;;3.05;;
61915;SDS011;47868;51.326;6.550;2023-04-12T06:57:28;4.63;;;3.28;;
61915;SDS011;47868;51.326;6.550;2023-04-12T06:59:54;4.43;;;3.15;;
61915;SDS011;47868;51.326;6.550;2023-04-12T07:02:20;3.63;;;3.30;;
61915;SDS011;47868;51.326;6.550;2023-04-12T07:04:46;4.18;;;3.22;;
61915;SDS011;47868;51.326;6.550;2023-04-12T07:07:12;5.40;;;3.10;;
61915;SDS011;47868;51.326;6.550;2023-04-12T07:09:38;4.45;;;2.97;;
61915;SDS011;47868;51.326;6.550;2023-04-12T07:12:04;4.80;;;3.20;;
61915;SDS011;47868;51.326;6.550;2023-04-12T07:14:30;6.03;;;3.85;;
61915;SDS011;47868;51.326;6.550;2023-04-12T07:16:56;3.92;;;3.28;;
61915;SDS011;47868;51.326;6.550;2023-04-12T07:19:23;3.35;;;3.05;;
61915;SDS011;47868;51.326;6.550;2023-04-12T07:21:49;4.90;;;2.90;;
61915;SDS011;47868;51.326;6.550;2023-04-12T07:24:15;5.88;;;3.45;;
61915;SDS011;47868;51.326;6.550;2023-04-12T07:26:41;4.43;;;3.42;;
61915;SDS011;47868;51.326;6.550;2023-04-12T07:29:07;5.03;;;3.38;;
61915;SDS011;47868;51.326;6.550;2023-04-12T07:31:33;5.03;;;3.50;;
61915;SDS011;47868;51.326;6.550;2023-04-12T07:33:59;5.07;;;3.45;;
61915;SDS011;47868;51.326;6.550;2023-04-12T07:36:25;5.18;;;3.03;;
61915;SDS011;47868;51.326;6.550;2023-04-12T07:38:51;6.75;;;3.50;;
61915;SDS011;47868;51.326;6.550;2023-04-12T07:41:20;8.52;;;3.22;;
61915;SDS011;47868;51.326;6.550;2023-04-12T07:43:46;4.78;;;4.05;;
61915;SDS011;47868;51.326;6.550;2023-04-12T07:46:12;4.45;;;3.25;;
61915;SDS011;47868;51.326;6.550;2023-04-12T07:48:38;4.25;;;3.28;;
61915;SDS011;47868;51.326;6.550;2023-04-12T07:51:04;7.28;;;3.55;;
61915;SDS011;47868;51.326;6.550;2023-04-12T07:53:30;7.07;;;3.90;;
61915;SDS011;47868;51.326;6.550;2023-04-12T07:55:56;4.32;;;3.47;;
61915;SDS011;47868;51.326;6.550;2023-04-12T07:58:23;4.20;;;3.80;;
61915;SDS011;47868;51.326;6.550;2023-04-12T08:00:49;5.55;;;4.00;;
61915;SDS011;47868;51.326;6.550;2023-04-12T08:03:17;4.10;;;3.33;;
61915;SDS011;47868;51.326;6.550;2023-04-12T08:05:44;3.72;;;3.35;;
61915;SDS011;47868;51.326;6.550;2023-04-12T08:08:17;4.85;;;3.33;;
61915;SDS011;47868;51.326;6.550;2023-04-12T08:10:50;3.88;;;3.53;;
61915;SDS011;47868;51.326;6.550;2023-04-12T08:13:16;5.63;;;4.07;;
61915;SDS011;47868;51.326;6.550;2023-04-12T08:15:42;3.97;;;3.58;;
61915;SDS011;47868;51.326;6.550;2023-04-12T08:18:08;6.35;;;3.88;;
61915;SDS011;47868;51.326;6.550;2023-04-12T08:20:35;4.35;;;3.53;;
61915;SDS011;47868;51.326;6.550;2023-04-12T08:23:04;5.32;;;4.82;;
61915;SDS011;47868;51.326;6.550;2023-04-12T08:25:30;5.05;;;3.88;;
61915;SDS011;47868;51.326;6.550;2023-04-12T08:27:56;5.70;;;3.92;;
61915;SDS011;47868;51.326;6.550;2023-04-12T08:30:22;4.28;;;3.42;;
61915;SDS011;47868;51.326;6.550;2023-04-12T08:32:51;4.13;;;3.42;;
61915;SDS011;47868;51.326;6.550;2023-04-12T08:35:17;4.60;;;3.95;;
61915;SDS011;47868;51.326;6.550;2023-04-12T08:37:43;4.20;;;3.50;;
61915;SDS011;47868;51.326;6.550;2023-04-12T08:40:09;5.50;;;3.78;;
61915;SDS011;47868;51.326;6.550;2023-04-12T08:42:36;5.22;;;4.00;;
61915;SDS011;47868;51.326;6.550;2023-04-12T08:45:03;3.97;;;3.53;;
61915;SDS011;47868;51.326;6.550;2023-04-12T08:47:29;4.13;;;3.58;;
61915;SDS011;47868;51.326;6.550;2023-04-12T08:49:57;7.10;;;5.78;;
61915;SDS011;47868;51.326;6.550;2023-04-12T08:52:26;5.68;;;5.10;;
61915;SDS011;47868;51.326;6.550;2023-04-12T08:54:52;4.95;;;4.22;;
61915;SDS011;47868;51.326;6.550;2023-04-12T08:57:19;5.03;;;4.55;;
61915;SDS011;47868;51.326;6.550;2023-04-12T08:59:46;6.22;;;5.47;;
61915;SDS011;47868;51.326;6.550;2023-04-12T09:02:15;6.07;;;4.70;;
61915;SDS011;47868;51.326;6.550;2023-04-12T09:04:50;4.60;;;3.45;;
61915;SDS011;47868;51.326;6.550;2023-04-12T09:07:17;4.30;;;3.70;;
61915;SDS011;47868;51.326;6.550;2023-04-12T09:09:46;4.60;;;3.75;;
61915;SDS011;47868;51.326;6.550;2023-04-12T09:12:13;6.78;;;3.97;;
61915;SDS011;47868;51.326;6.550;2023-04-12T09:14:40;5.20;;;3.75;;
61915;SDS011;47868;51.326;6.550;2023-04-12T09:17:22;3.83;;;3.25;;
61915;SDS011;47868;51.326;6.550;2023-04-12T09:19:48;6.15;;;4.22;;
61915;SDS011;47868;51.326;6.550;2023-04-12T09:22:14;5.85;;;3.90;;
61915;SDS011;47868;51.326;6.550;2023-04-12T09:24:47;8.02;;;4.80;;
61915;SDS011;47868;51.326;6.550;2023-04-12T09:27:16;6.13;;;4.10;;
61915;SDS011;47868;51.326;6.550;2023-04-12T09:29:45;4.15;;;3.72;;
61915;SDS011;47868;51.326;6.550;2023-04-12T09:32:15;4.35;;;3.78;;
61915;SDS011;47868;51.326;6.550;2023-04-12T09:34:55;4.57;;;4.18;;
61915;SDS011;47868;51.326;6.550;2023-04-12T09:37:22;5.10;;;3.38;;
61915;SDS011;47868;51.326;6.550;2023-04-12T09:39:57;3.22;;;2.92;;
61915;SDS011;47868;51.326;6.550;2023-04-12T09:42:23;4.32;;;3.10;;
61915;SDS011;47868;51.326;6.550;2023-04-12T09:44:49;4.22;;;3.10;;
61915;SDS011;47868;51.326;6.550;2023-04-12T09:47:16;2.67;;;2.47;;
61915;SDS011;47868;51.326;6.550;2023-04-12T09:49:42;4.90;;;2.50;;
61915;SDS011;47868;51.326;6.550;2023-04-12T09:52:12;1.90;;;1.50;;
61915;SDS011;47868;51.326;6.550;2023-04-12T09:57:05;1.70;;;1.60;;
61915;SDS011;47868;51.326;6.550;2023-04-12T09:59:33;1.83;;;1.73;;
61915;SDS011;47868;51.326;6.550;2023-04-12T10:02:00;1.80;;;1.67;;
61915;SDS011;47868;51.326;6.550;2023-04-12T10:04:27;1.92;;;1.80;;
61915;SDS011;47868;51.326;6.550;2023-04-12T10:06:55;1.45;;;1.35;;
61915;SDS011;47868;51.326;6.550;2023-04-12T10:09:23;2.10;;;1.90;;
61915;SDS011;47868;51.326;6.550;2023-04-12T10:11:49;5.38;;;1.85;;
61915;SDS011;47868;51.326;6.550;2023-04-12T10:14:16;2.58;;;1.80;;
61915;SDS011;47868;51.326;6.550;2023-04-12T10:16:43;6.57;;;2.35;;
61915;SDS011;47868;51.326;6.550;2023-04-12T10:19:10;6.75;;;2.25;;
61915;SDS011;47868;51.326;6.550;2023-04-12T10:21:37;6.78;;;2.60;;
61915;SDS011;47868;51.326;6.550;2023-04-12T10:24:04;4.68;;;2.70;;
61915;SDS011;47868;51.326;6.550;2023-04-12T10:26:33;7.13;;;2.72;;
61915;SDS011;47868;51.326;6.550;2023-04-12T10:34:41;10.73;;;3.45;;
61915;SDS011;47868;51.326;6.550;2023-04-12T10:37:07;6.80;;;2.60;;
61915;SDS011;47868;51.326;6.550;2023-04-12T10:39:40;7.10;;;2.72;;
61915;SDS011;47868;51.326;6.550;2023-04-12T10:44:46;9.27;;;3.20;;
61915;SDS011;47868;51.326;6.550;2023-04-12T10:47:13;10.88;;;3.67;;
61915;SDS011;47868;51.326;6.550;2023-04-12T10:49:39;9.88;;;2.97;;
61915;SDS011;47868;51.326;6.550;2023-04-12T10:54:35;7.47;;;2.60;;
61915;SDS011;47868;51.326;6.550;2023-04-12T10:57:02;9.45;;;2.92;;
61915;SDS011;47868;51.326;6.550;2023-04-12T11:00:01;5.57;;;2.40;;
61915;SDS011;47868;51.326;6.550;2023-04-12T11:02:23;7.03;;;2.65;;
61915;SDS011;47868;51.326;6.550;2023-04-12T11:07:48;5.63;;;2.78;;
61915;SDS011;47868;51.326;6.550;2023-04-12T11:10:17;13.85;;;3.58;;
61915;SDS011;47868;51.326;6.550;2023-04-12T11:12:49;10.38;;;3.17;;
61915;SDS011;47868;51.326;6.550;2023-04-12T11:15:15;4.60;;;2.75;;
61915;SDS011;47868;51.326;6.550;2023-04-12T11:17:41;5.78;;;2.58;;
61915;SDS011;47868;51.326;6.550;2023-04-12T11:20:10;8.00;;;2.85;;
61915;SDS011;47868;51.326;6.550;2023-04-12T11:22:37;5.75;;;2.65;;
61915;SDS011;47868;51.326;6.550;2023-04-12T11:25:05;11.55;;;3.17;;
61915;SDS011;47868;51.326;6.550;2023-04-12T11:27:31;7.72;;;3.00;;
61915;SDS011;47868;51.326;6.550;2023-04-12T11:29:59;8.05;;;2.65;;
61915;SDS011;47868;51.326;6.550;2023-04-12T11:32:26;6.10;;;2.83;;
61915;SDS011;47868;51.326;6.550;2023-04-12T11:34:53;6.43;;;2.60;;
61915;SDS011;47868;51.326;6.550;2023-04-12T11:37:20;9.38;;;2.75;;
61915;SDS011;47868;51.326;6.550;2023-04-12T11:39:49;9.35;;;2.60;;
61915;SDS011;47868;51.326;6.550;2023-04-12T11:42:16;10.60;;;2.55;;
61915;SDS011;47868;51.326;6.550;2023-04-12T11:44:43;5.68;;;2.60;;
61915;SDS011;47868;51.326;6.550;2023-04-12T11:47:17;10.63;;;2.60;;
61915;SDS011;47868;51.326;6.550;2023-04-12T11:49:44;6.70;;;3.17;;
61915;SDS011;47868;51.326;6.550;2023-04-12T11:52:10;6.88;;;2.70;;
61915;SDS011;47868;51.326;6.550;2023-04-12T11:54:37;5.80;;;2.70;;
61915;SDS011;47868;51.326;6.550;2023-04-12T11:57:06;6.25;;;2.63;;
61915;SDS011;47868;51.326;6.550;2023-04-12T11:59:32;13.50;;;2.90;;
61915;SDS011;47868;51.326;6.550;2023-04-12T12:01:59;8.27;;;3.30;;
61915;SDS011;47868;51.326;6.550;2023-04-12T12:04:29;8.27;;;2.85;;
61915;SDS011;47868;51.326;6.550;2023-04-12T12:06:56;8.45;;;3.15;;
61915;SDS011;47868;51.326;6.550;2023-04-12T12:09:23;10.75;;;3.25;;
61915;SDS011;47868;51.326;6.550;2023-04-12T12:11:50;15.85;;;2.95;;
61915;SDS011;47868;51.326;6.550;2023-04-12T12:14:17;9.27;;;2.97;;
61915;SDS011;47868;51.326;6.550;2023-04-12T12:16:43;12.75;;;3.67;;
61915;SDS011;47868;51.326;6.550;2023-04-12T12:19:25;8.77;;;2.72;;
61915;SDS011;47868;51.326;6.550;2023-04-12T12:21:51;9.43;;;3.22;;
61915;SDS011;47868;51.326;6.550;2023-04-12T12:24:17;7.03;;;2.92;;
61915;SDS011;47868;51.326;6.550;2023-04-12T12:26:43;8.27;;;3.20;;
61915;SDS011;47868;51.326;6.550;2023-04-12T12:29:15;7.43;;;3.38;;
61915;SDS011;47868;51.326;6.550;2023-04-12T12:31:44;12.63;;;3.30;;
61915;SDS011;47868;51.326;6.550;2023-04-12T12:34:12;9.85;;;3.05;;
61915;SDS011;47868;51.326;6.550;2023-04-12T12:36:38;9.75;;;3.80;;
61915;SDS011;47868;51.326;6.550;2023-04-12T12:39:08;9.63;;;3.65;;
61915;SDS011;47868;51.326;6.550;2023-04-12T12:41:35;13.48;;;4.38;;
61915;SDS011;47868;51.326;6.550;2023-04-12T12:44:01;8.90;;;4.07;;
61915;SDS011;47868;51.326;6.550;2023-04-12T12:46:27;11.90;;;3.50;;
61915;SDS011;47868;51.326;6.550;2023-04-12T12:48:53;12.35;;;4.13;;
61915;SDS011;47868;51.326;6.550;2023-04-12T12:51:20;9.40;;;4.15;;
61915;SDS011;47868;51.326;6.550;2023-04-12T12:53:46;10.82;;;4.38;;
61915;SDS011;47868;51.326;6.550;2023-04-12T12:56:12;7.45;;;3.72;;
61915;SDS011;47868;51.326;6.550;2023-04-12T12:58:39;11.07;;;4.32;;
61915;SDS011;47868;51.326;6.550;2023-04-12T13:01:05;11.13;;;4.50;;
61915;SDS011;47868;51.326;6.550;2023-04-12T13:03:32;10.32;;;4.30;;
61915;SDS011;47868;51.326;6.550;2023-04-12T13:05:58;12.25;;;4.00;;
61915;SDS011;47868;51.326;6.550;2023-04-12T13:08:24;10.50;;;4.03;;
61915;SDS011;47868;51.326;6.550;2023-04-12T13:10:51;18.15;;;4.32;;
61915;SDS011;47868;51.326;6.550;2023-04-12T13:13:17;10.75;;;3.95;;
61915;SDS011;47868;51.326;6.550;2023-04-12T13:15:44;13.90;;;3.65;;
61915;SDS011;47868;51.326;6.550;2023-04-12T13:18:11;9.18;;;3.78;;
61915;SDS011;47868;51.326;6.550;2023-04-12T13:20:40;15.07;;;3.72;;
61915;SDS011;47868;51.326;6.550;2023-04-12T13:23:07;9.98;;;3.35;;
61915;SDS011;47868;51.326;6.550;2023-04-12T13:25:33;11.75;;;3.42;;
61915;SDS011;47868;51.326;6.550;2023-04-12T13:27:59;9.15;;;3.10;;
61915;SDS011;47868;51.326;6.550;2023-04-12T13:30:25;5.47;;;2.65;;
61915;SDS011;47868;51.326;6.550;2023-04-12T13:32:52;7.95;;;2.47;;
61915;SDS011;47868;51.326;6.550;2023-04-12T13:35:18;6.68;;;2.20;;
61915;SDS011;47868;51.326;6.550;2023-04-12T13:37:44;6.93;;;2.20;;
61915;SDS011;47868;51.326;6.550;2023-04-12T13:40:10;6.10;;;2.10;;
61915;SDS011;47868;51.326;6.550;2023-04-12T13:42:36;6.40;;;2.40;;
61915;SDS011;47868;51.326;6.550;2023-04-12T13:45:02;10.57;;;3.60;;
61915;SDS011;47868;51.326;6.550;2023-04-12T13:47:29;9.50;;;4.13;;
61915;SDS011;47868;51.326;6.550;2023-04-12T13:49:57;9.98;;;4.47;;
61915;SDS011;47868;51.326;6.550;2023-04-12T13:52:23;13.07;;;4.63;;
61915;SDS011;47868;51.326;6.550;2023-04-12T13:54:49;13.48;;;4.88;;
61915;SDS011;47868;51.326;6.550;2023-04-12T13:57:15;11.30;;;4.00;;
61915;SDS011;47868;51.326;6.550;2023-04-12T13:59:41;10.07;;;2.97;;
61915;SDS011;47868;51.326;6.550;2023-04-12T14:02:07;7.38;;;2.78;;
61915;SDS011;47868;51.326;6.550;2023-04-12T14:04:33;7.88;;;2.67;;
61915;SDS011;47868;51.326;6.550;2023-04-12T14:07:00;10.25;;;3.00;;
61915;SDS011;47868;51.326;6.550;2023-04-12T14:09:26;9.73;;;3.20;;
61915;SDS011;47868;51.326;6.550;2023-04-12T14:11:53;9.50;;;2.80;;
61915;SDS011;47868;51.326;6.550;2023-04-12T14:14:20;9.82;;;3.50;;
61915;SDS011;47868;51.326;6.550;2023-04-12T14:16:50;7.68;;;2.78;;
61915;SDS011;47868;51.326;6.550;2023-04-12T14:19:17;8.93;;;2.83;;
61915;SDS011;47868;51.326;6.550;2023-04-12T14:21:43;6.95;;;2.72;;
61915;SDS011;47868;51.326;6.550;2023-04-12T14:24:10;13.05;;;3.60;;
61915;SDS011;47868;51.326;6.550;2023-04-12T14:26:37;12.40;;;5.55;;
61915;SDS011;47868;51.326;6.550;2023-04-12T14:29:04;12.18;;;5.13;;
61915;SDS011;47868;51.326;6.550;2023-04-12T14:31:30;9.90;;;4.35;;
61915;SDS011;47868;51.326;6.550;2023-04-12T14:33:56;7.72;;;3.05;;
61915;SDS011;47868;51.326;6.550;2023-04-12T14:36:22;4.97;;;2.78;;
61915;SDS011;47868;51.326;6.550;2023-04-12T14:38:48;6.32;;;2.75;;
61915;SDS011;47868;51.326;6.550;2023-04-12T14:41:14;4.72;;;1.95;;
61915;SDS011;47868;51.326;6.550;2023-04-12T14:43:41;6.45;;;2.80;;
61915;SDS011;47868;51.326;6.550;2023-04-12T14:46:07;4.30;;;2.30;;
61915;SDS011;47868;51.326;6.550;2023-04-12T14:48:33;9.65;;;2.75;;
61915;SDS011;47868;51.326;6.550;2023-04-12T14:50:59;5.47;;;2.10;;
61915;SDS011;47868;51.326;6.550;2023-04-12T14:53:25;4.80;;;1.95;;
61915;SDS011;47868;51.326;6.550;2023-04-12T14:55:52;5.43;;;1.92;;
61915;SDS011;47868;51.326;6.550;2023-04-12T14:58:18;3.72;;;1.50;;
61915;SDS011;47868;51.326;6.550;2023-04-12T15:00:44;1.95;;;1.27;;
61915;SDS011;47868;51.326;6.550;2023-04-12T15:03:10;3.30;;;1.60;;
61915;SDS011;47868;51.326;6.550;2023-04-12T15:05:36;3.95;;;1.05;;
61915;SDS011;47868;51.326;6.550;2023-04-12T15:08:02;2.28;;;1.42;;
61915;SDS011;47868;51.326;6.550;2023-04-12T15:10:28;1.30;;;1.20;;
61915;SDS011;47868;51.326;6.550;2023-04-12T15:12:55;3.53;;;1.48;;
61915;SDS011;47868;51.326;6.550;2023-04-12T15:15:22;1.85;;;1.35;;
61915;SDS011;47868;51.326;6.550;2023-04-12T15:17:48;2.63;;;0.93;;